sensor_id;sensor_type;location;lat;lon;timestamp;P1;durP1;ratioP1;P2;durP2;ratioP2
22711;SDS011;11523;50.390;8.072;2023-07-02T03:52:38;12.20;;;5.93;;
22711;SDS011;11523;50.390;8.072;2023-07-02T03:55:10;11.45;;;6.47;;
22711;SDS011;11523;50.390;8.072;2023-07-02T03:57:36;14.35;;;5.97;;
22711;SDS011;11523;50.390;8.072;2023-07-02T04:00:02;10.68;;;6.32;;
22711;SDS011;11523;50.390;8.072;2023-07-02T04:02:30;12.65;;;6.20;;
22711;SDS011;11523;50.390;8.072;2023-07-02T04:04:56;11.90;;;7.07;;
22711;SDS011;11523;50.390;8.072;2023-07-02T04:07:21;10.73;;;6.63;;
22711;SDS011;11523;50.390;8.072;2023-07-02T04:09:47;14.20;;;6.93;;
22711;SDS011;11523;50.390;8.072;2023-07-02T04:12:13;12.48;;;6.82;;
22711;SDS011;11523;50.390;8.072;2023-07-02T04:14:39;12.70;;;7.35;;
22711;SDS011;11523;50.390;8.072;2023-07-02T04:17:05;14.13;;;7.97;;
22711;SDS011;11523;50.390;8.072;2023-07-02T04:19:31;14.13;;;7.90;;
22711;SDS011;11523;50.390;8.072;2023-07-02T04:21:57;16.45;;;8.13;;
22711;SDS011;11523;50.390;8.072;2023-07-02T04:24:23;11.82;;;8.18;;
22711;SDS011;11523;50.390;8.072;2023-07-02T04:26:50;14.57;;;8.98;;
22711;SDS011;11523;50.390;8.072;2023-07-02T04:29:16;12.80;;;8.75;;
22711;SDS011;11523;50.390;8.072;2023-07-02T04:31:42;17.52;;;8.75;;
22711;SDS011;11523;50.390;8.072;2023-07-02T04:34:08;13.75;;;8.68;;
22711;SDS011;11523;50.390;8.072;2023-07-02T04:36:34;15.30;;;8.65;;
22711;SDS011;11523;50.390;8.072;2023-07-02T04:39:00;15.18;;;9.18;;
22711;SDS011;11523;50.390;8.072;2023-07-02T04:41:26;13.35;;;8.88;;
22711;SDS011;11523;50.390;8.072;2023-07-02T04:43:52;14.30;;;9.57;;
22711;SDS011;11523;50.390;8.072;2023-07-02T04:46:18;14.00;;;8.70;;
22711;SDS011;11523;50.390;8.072;2023-07-02T04:48:44;16.83;;;9.35;;
22711;SDS011;11523;50.390;8.072;2023-07-02T04:51:10;14.23;;;9.32;;
22711;SDS011;11523;50.390;8.072;2023-07-02T04:53:36;15.13;;;9.40;;
22711;SDS011;11523;50.390;8.072;2023-07-02T04:56:02;15.68;;;9.35;;
22711;SDS011;11523;50.390;8.072;2023-07-02T04:58:28;17.25;;;9.45;;
22711;SDS011;11523;50.390;8.072;2023-07-02T05:00:54;14.88;;;8.70;;
22711;SDS011;11523;50.390;8.072;2023-07-02T05:03:20;16.02;;;9.93;;
22711;SDS011;11523;50.390;8.072;2023-07-02T05:05:46;18.10;;;9.73;;
22711;SDS011;11523;50.390;8.072;2023-07-02T05:08:12;14.73;;;8.95;;
22711;SDS011;11523;50.390;8.072;2023-07-02T05:10:38;15.43;;;10.65;;
22711;SDS011;11523;50.390;8.072;2023-07-02T05:13:04;16.88;;;9.95;;
22711;SDS011;11523;50.390;8.072;2023-07-02T05:15:30;16.45;;;9.70;;
22711;SDS011;11523;50.390;8.072;2023-07-02T05:17:56;17.92;;;10.13;;
22711;SDS011;11523;50.390;8.072;2023-07-02T05:20:22;18.35;;;9.95;;
22711;SDS011;11523;50.390;8.072;2023-07-02T05:22:48;15.75;;;10.13;;
22711;SDS011;11523;50.390;8.072;2023-07-02T05:25:14;14.85;;;9.52;;
22711;SDS011;11523;50.390;8.072;2023-07-02T05:27:40;18.15;;;10.43;;
22711;SDS011;11523;50.390;8.072;2023-07-02T05:30:06;16.85;;;11.00;;
22711;SDS011;11523;50.390;8.072;2023-07-02T05:32:33;20.80;;;10.48;;
22711;SDS011;11523;50.390;8.072;2023-07-02T05:34:59;16.67;;;11.00;;
22711;SDS011;11523;50.390;8.072;2023-07-02T05:37:25;18.27;;;10.75;;
22711;SDS011;11523;50.390;8.072;2023-07-02T05:39:51;19.77;;;11.57;;
22711;SDS011;11523;50.390;8.072;2023-07-02T05:42:17;18.85;;;10.95;;
22711;SDS011;11523;50.390;8.072;2023-07-02T05:44:43;21.92;;;11.88;;
22711;SDS011;11523;50.390;8.072;2023-07-02T05:47:09;16.10;;;10.63;;
22711;SDS011;11523;50.390;8.072;2023-07-02T05:49:35;21.02;;;12.18;;
22711;SDS011;11523;50.390;8.072;2023-07-02T05:52:01;19.25;;;11.10;;
22711;SDS011;11523;50.390;8.072;2023-07-02T05:54:27;16.75;;;11.10;;
22711;SDS011;11523;50.390;8.072;2023-07-02T05:56:53;17.35;;;11.70;;
22711;SDS011;11523;50.390;8.072;2023-07-02T05:59:19;17.35;;;11.63;;
22711;SDS011;11523;50.390;8.072;2023-07-02T06:01:45;19.98;;;11.95;;
22711;SDS011;11523;50.390;8.072;2023-07-02T06:04:11;17.63;;;11.85;;
22711;SDS011;11523;50.390;8.072;2023-07-02T06:06:37;21.77;;;11.60;;
22711;SDS011;11523;50.390;8.072;2023-07-02T06:09:03;18.23;;;12.27;;
22711;SDS011;11523;50.390;8.072;2023-07-02T06:11:29;18.50;;;12.00;;
22711;SDS011;11523;50.390;8.072;2023-07-02T06:13:54;18.52;;;11.23;;
22711;SDS011;11523;50.390;8.072;2023-07-02T06:16:20;21.55;;;12.27;;
22711;SDS011;11523;50.390;8.072;2023-07-02T06:18:46;18.58;;;13.13;;
22711;SDS011;11523;50.390;8.072;2023-07-02T06:21:12;23.08;;;11.85;;
22711;SDS011;11523;50.390;8.072;2023-07-02T06:23:47;23.02;;;12.60;;
22711;SDS011;11523;50.390;8.072;2023-07-02T06:26:13;22.05;;;12.45;;
22711;SDS011;11523;50.390;8.072;2023-07-02T06:28:39;21.58;;;12.52;;
22711;SDS011;11523;50.390;8.072;2023-07-02T06:31:05;19.55;;;13.18;;
22711;SDS011;11523;50.390;8.072;2023-07-02T06:33:32;17.92;;;12.07;;
22711;SDS011;11523;50.390;8.072;2023-07-02T06:35:58;19.63;;;12.93;;
22711;SDS011;11523;50.390;8.072;2023-07-02T06:38:24;20.33;;;12.52;;
22711;SDS011;11523;50.390;8.072;2023-07-02T06:40:50;20.42;;;13.23;;
22711;SDS011;11523;50.390;8.072;2023-07-02T06:43:15;22.00;;;13.27;;
22711;SDS011;11523;50.390;8.072;2023-07-02T06:45:41;21.73;;;12.90;;
22711;SDS011;11523;50.390;8.072;2023-07-02T06:48:07;23.45;;;14.38;;
22711;SDS011;11523;50.390;8.072;2023-07-02T06:50:33;19.48;;;13.85;;
22711;SDS011;11523;50.390;8.072;2023-07-02T06:52:59;21.48;;;12.85;;
22711;SDS011;11523;50.390;8.072;2023-07-02T06:55:25;19.50;;;12.75;;
22711;SDS011;11523;50.390;8.072;2023-07-02T06:57:51;19.92;;;12.60;;
22711;SDS011;11523;50.390;8.072;2023-07-02T07:00:18;21.13;;;13.48;;
22711;SDS011;11523;50.390;8.072;2023-07-02T07:02:44;18.67;;;13.80;;
22711;SDS011;11523;50.390;8.072;2023-07-02T07:05:10;20.95;;;13.10;;
22711;SDS011;11523;50.390;8.072;2023-07-02T07:07:36;19.58;;;14.32;;
22711;SDS011;11523;50.390;8.072;2023-07-02T07:10:02;19.95;;;13.68;;
22711;SDS011;11523;50.390;8.072;2023-07-02T07:12:28;22.58;;;14.70;;
22711;SDS011;11523;50.390;8.072;2023-07-02T07:14:54;19.67;;;13.32;;
22711;SDS011;11523;50.390;8.072;2023-07-02T07:17:20;24.52;;;14.25;;
22711;SDS011;11523;50.390;8.072;2023-07-02T07:19:46;22.50;;;13.50;;
22711;SDS011;11523;50.390;8.072;2023-07-02T07:22:12;21.50;;;13.25;;
22711;SDS011;11523;50.390;8.072;2023-07-02T07:24:38;25.63;;;14.52;;
22711;SDS011;11523;50.390;8.072;2023-07-02T07:27:04;21.00;;;12.13;;
22711;SDS011;11523;50.390;8.072;2023-07-02T07:29:30;19.17;;;13.57;;
22711;SDS011;11523;50.390;8.072;2023-07-02T07:31:56;25.75;;;14.15;;
22711;SDS011;11523;50.390;8.072;2023-07-02T07:34:22;18.38;;;12.93;;
22711;SDS011;11523;50.390;8.072;2023-07-02T07:36:48;23.95;;;14.65;;
22711;SDS011;11523;50.390;8.072;2023-07-02T07:39:14;20.98;;;13.05;;
22711;SDS011;11523;50.390;8.072;2023-07-02T07:41:40;22.95;;;13.30;;
22711;SDS011;11523;50.390;8.072;2023-07-02T07:44:05;20.35;;;13.57;;
22711;SDS011;11523;50.390;8.072;2023-07-02T07:46:31;21.45;;;13.18;;
22711;SDS011;11523;50.390;8.072;2023-07-02T07:48:57;18.75;;;12.05;;
22711;SDS011;11523;50.390;8.072;2023-07-02T07:51:23;20.30;;;13.07;;
22711;SDS011;11523;50.390;8.072;2023-07-02T07:53:49;22.38;;;12.05;;
22711;SDS011;11523;50.390;8.072;2023-07-02T07:56:15;19.95;;;12.50;;
22711;SDS011;11523;50.390;8.072;2023-07-02T07:58:41;21.15;;;13.30;;
22711;SDS011;11523;50.390;8.072;2023-07-02T08:01:07;24.30;;;14.32;;
22711;SDS011;11523;50.390;8.072;2023-07-02T08:03:33;23.02;;;13.55;;
22711;SDS011;11523;50.390;8.072;2023-07-02T08:05:59;21.25;;;14.82;;
22711;SDS011;11523;50.390;8.072;2023-07-02T08:08:25;23.60;;;14.75;;
22711;SDS011;11523;50.390;8.072;2023-07-02T08:10:51;21.30;;;13.73;;
22711;SDS011;11523;50.390;8.072;2023-07-02T08:13:17;20.92;;;14.18;;
22711;SDS011;11523;50.390;8.072;2023-07-02T08:15:43;23.95;;;13.13;;
22711;SDS011;11523;50.390;8.072;2023-07-02T08:18:09;22.92;;;13.88;;
22711;SDS011;11523;50.390;8.072;2023-07-02T08:20:36;22.33;;;14.10;;
22711;SDS011;11523;50.390;8.072;2023-07-02T08:23:02;19.13;;;13.77;;
22711;SDS011;11523;50.390;8.072;2023-07-02T08:25:28;17.98;;;13.35;;
22711;SDS011;11523;50.390;8.072;2023-07-02T08:27:55;24.10;;;14.00;;
22711;SDS011;11523;50.390;8.072;2023-07-02T08:30:21;16.92;;;13.27;;
22711;SDS011;11523;50.390;8.072;2023-07-02T08:32:47;20.77;;;14.70;;
22711;SDS011;11523;50.390;8.072;2023-07-02T08:35:13;21.17;;;14.75;;
22711;SDS011;11523;50.390;8.072;2023-07-02T08:37:39;21.00;;;14.18;;
22711;SDS011;11523;50.390;8.072;2023-07-02T08:40:05;22.25;;;13.70;;
22711;SDS011;11523;50.390;8.072;2023-07-02T08:42:32;18.20;;;13.40;;
22711;SDS011;11523;50.390;8.072;2023-07-02T08:44:59;19.70;;;12.40;;
22711;SDS011;11523;50.390;8.072;2023-07-02T08:47:25;20.27;;;13.10;;
22711;SDS011;11523;50.390;8.072;2023-07-02T08:49:51;18.92;;;13.20;;
22711;SDS011;11523;50.390;8.072;2023-07-02T08:52:18;23.20;;;13.48;;
22711;SDS011;11523;50.390;8.072;2023-07-02T08:54:44;23.52;;;13.93;;
22711;SDS011;11523;50.390;8.072;2023-07-02T08:57:09;19.60;;;13.07;;
22711;SDS011;11523;50.390;8.072;2023-07-02T08:59:36;20.92;;;12.82;;
22711;SDS011;11523;50.390;8.072;2023-07-02T09:02:02;16.65;;;12.52;;
22711;SDS011;11523;50.390;8.072;2023-07-02T09:04:29;18.98;;;12.35;;
22711;SDS011;11523;50.390;8.072;2023-07-02T09:07:08;19.08;;;12.75;;
22711;SDS011;11523;50.390;8.072;2023-07-02T09:09:47;18.65;;;13.05;;
22711;SDS011;11523;50.390;8.072;2023-07-02T09:12:26;19.67;;;13.38;;
22711;SDS011;11523;50.390;8.072;2023-07-02T09:14:56;18.85;;;12.40;;
22711;SDS011;11523;50.390;8.072;2023-07-02T09:17:26;19.27;;;12.85;;
22711;SDS011;11523;50.390;8.072;2023-07-02T09:19:52;20.23;;;13.27;;
22711;SDS011;11523;50.390;8.072;2023-07-02T09:22:18;18.08;;;13.00;;
22711;SDS011;11523;50.390;8.072;2023-07-02T09:25:02;18.70;;;13.75;;
22711;SDS011;11523;50.390;8.072;2023-07-02T09:27:35;22.00;;;13.00;;
22711;SDS011;11523;50.390;8.072;2023-07-02T09:32:43;19.70;;;12.77;;
22711;SDS011;11523;50.390;8.072;2023-07-02T09:35:16;17.70;;;11.95;;
22711;SDS011;11523;50.390;8.072;2023-07-02T09:37:42;18.67;;;12.98;;
22711;SDS011;11523;50.390;8.072;2023-07-02T09:40:09;17.73;;;13.43;;
22711;SDS011;11523;50.390;8.072;2023-07-02T09:42:35;21.42;;;12.93;;
22711;SDS011;11523;50.390;8.072;2023-07-02T09:45:09;17.75;;;11.98;;
22711;SDS011;11523;50.390;8.072;2023-07-02T09:47:37;20.90;;;14.40;;
22711;SDS011;11523;50.390;8.072;2023-07-02T09:50:05;22.15;;;14.63;;
22711;SDS011;11523;50.390;8.072;2023-07-02T09:52:33;19.00;;;13.32;;
22711;SDS011;11523;50.390;8.072;2023-07-02T09:55:12;21.75;;;13.45;;
22711;SDS011;11523;50.390;8.072;2023-07-02T09:57:38;18.65;;;12.95;;
22711;SDS011;11523;50.390;8.072;2023-07-02T10:00:05;20.75;;;14.30;;
22711;SDS011;11523;50.390;8.072;2023-07-02T10:02:32;19.13;;;13.55;;
22711;SDS011;11523;50.390;8.072;2023-07-02T10:04:59;21.00;;;13.90;;
22711;SDS011;11523;50.390;8.072;2023-07-02T10:07:25;19.27;;;13.70;;
22711;SDS011;11523;50.390;8.072;2023-07-02T10:09:51;23.38;;;13.93;;
22711;SDS011;11523;50.390;8.072;2023-07-02T10:12:18;20.40;;;12.73;;
22711;SDS011;11523;50.390;8.072;2023-07-02T10:14:45;20.33;;;12.38;;
22711;SDS011;11523;50.390;8.072;2023-07-02T10:17:11;18.02;;;12.95;;
22711;SDS011;11523;50.390;8.072;2023-07-02T10:19:51;14.05;;;10.40;;
22711;SDS011;11523;50.390;8.072;2023-07-02T10:22:18;14.43;;;11.07;;
22711;SDS011;11523;50.390;8.072;2023-07-02T10:24:50;15.88;;;11.45;;
22711;SDS011;11523;50.390;8.072;2023-07-02T10:27:17;10.38;;;6.45;;
22711;SDS011;11523;50.390;8.072;2023-07-02T10:29:49;15.07;;;8.23;;
22711;SDS011;11523;50.390;8.072;2023-07-02T10:32:25;14.82;;;11.45;;
22711;SDS011;11523;50.390;8.072;2023-07-02T10:34:51;20.50;;;11.98;;
22711;SDS011;11523;50.390;8.072;2023-07-02T10:37:17;17.50;;;12.80;;
22711;SDS011;11523;50.390;8.072;2023-07-02T10:39:43;18.17;;;11.38;;
22711;SDS011;11523;50.390;8.072;2023-07-02T10:42:10;15.45;;;11.73;;
22711;SDS011;11523;50.390;8.072;2023-07-02T10:44:57;17.90;;;11.90;;
22711;SDS011;11523;50.390;8.072;2023-07-02T10:47:22;16.40;;;11.30;;
22711;SDS011;11523;50.390;8.072;2023-07-02T10:49:48;15.07;;;11.02;;
22711;SDS011;11523;50.390;8.072;2023-07-02T10:52:14;15.15;;;10.98;;
22711;SDS011;11523;50.390;8.072;2023-07-02T10:54:44;17.17;;;11.50;;
22711;SDS011;11523;50.390;8.072;2023-07-02T10:57:13;14.50;;;11.50;;
22711;SDS011;11523;50.390;8.072;2023-07-02T10:59:41;16.52;;;11.40;;
22711;SDS011;11523;50.390;8.072;2023-07-02T11:02:08;13.85;;;11.23;;
22711;SDS011;11523;50.390;8.072;2023-07-02T11:04:35;18.08;;;11.05;;
22711;SDS011;11523;50.390;8.072;2023-07-02T11:07:01;15.48;;;10.52;;
22711;SDS011;11523;50.390;8.072;2023-07-02T11:09:27;13.27;;;11.02;;
22711;SDS011;11523;50.390;8.072;2023-07-02T11:11:56;15.43;;;12.32;;
22711;SDS011;11523;50.390;8.072;2023-07-02T11:14:26;14.30;;;10.40;;
22711;SDS011;11523;50.390;8.072;2023-07-02T11:16:55;12.73;;;9.60;;
22711;SDS011;11523;50.390;8.072;2023-07-02T11:19:21;14.27;;;10.20;;
22711;SDS011;11523;50.390;8.072;2023-07-02T11:21:51;15.77;;;11.23;;
22711;SDS011;11523;50.390;8.072;2023-07-02T11:24:25;17.98;;;11.93;;
22711;SDS011;11523;50.390;8.072;2023-07-02T11:29:17;14.20;;;11.23;;
22711;SDS011;11523;50.390;8.072;2023-07-02T11:31:44;13.65;;;10.52;;
22711;SDS011;11523;50.390;8.072;2023-07-02T11:34:13;14.70;;;10.88;;
22711;SDS011;11523;50.390;8.072;2023-07-02T11:36:39;15.07;;;10.43;;
22711;SDS011;11523;50.390;8.072;2023-07-02T11:39:05;15.20;;;10.82;;
22711;SDS011;11523;50.390;8.072;2023-07-02T11:41:38;15.68;;;10.85;;
22711;SDS011;11523;50.390;8.072;2023-07-02T11:44:04;19.05;;;10.98;;
22711;SDS011;11523;50.390;8.072;2023-07-02T11:46:30;14.48;;;9.43;;
22711;SDS011;11523;50.390;8.072;2023-07-02T11:48:56;13.73;;;9.07;;
22711;SDS011;11523;50.390;8.072;2023-07-02T11:51:22;16.25;;;10.45;;
22711;SDS011;11523;50.390;8.072;2023-07-02T11:53:47;14.77;;;10.77;;
22711;SDS011;11523;50.390;8.072;2023-07-02T11:56:13;14.65;;;10.10;;
22711;SDS011;11523;50.390;8.072;2023-07-02T11:58:40;13.52;;;9.77;;
22711;SDS011;11523;50.390;8.072;2023-07-02T12:01:06;18.40;;;10.65;;
22711;SDS011;11523;50.390;8.072;2023-07-02T12:03:32;13.30;;;10.70;;
22711;SDS011;11523;50.390;8.072;2023-07-02T12:05:58;14.07;;;10.32;;
22711;SDS011;11523;50.390;8.072;2023-07-02T12:08:24;16.35;;;10.95;;
22711;SDS011;11523;50.390;8.072;2023-07-02T12:10:50;14.43;;;10.50;;
22711;SDS011;11523;50.390;8.072;2023-07-02T12:13:16;14.70;;;11.55;;
22711;SDS011;11523;50.390;8.072;2023-07-02T12:15:42;14.75;;;11.23;;
22711;SDS011;11523;50.390;8.072;2023-07-02T12:18:08;17.48;;;11.55;;
22711;SDS011;11523;50.390;8.072;2023-07-02T12:20:34;13.85;;;10.52;;
22711;SDS011;11523;50.390;8.072;2023-07-02T12:23:00;18.92;;;11.90;;
22711;SDS011;11523;50.390;8.072;2023-07-02T12:25:26;15.55;;;10.85;;
22711;SDS011;11523;50.390;8.072;2023-07-02T12:27:52;13.02;;;9.13;;
22711;SDS011;11523;50.390;8.072;2023-07-02T12:30:18;15.30;;;11.88;;
22711;SDS011;11523;50.390;8.072;2023-07-02T12:32:44;16.63;;;11.75;;
22711;SDS011;11523;50.390;8.072;2023-07-02T12:35:11;15.98;;;12.63;;
22711;SDS011;11523;50.390;8.072;2023-07-02T12:37:46;20.48;;;11.55;;
22711;SDS011;11523;50.390;8.072;2023-07-02T12:40:13;15.02;;;9.88;;
22711;SDS011;11523;50.390;8.072;2023-07-02T12:42:40;15.80;;;11.90;;
22711;SDS011;11523;50.390;8.072;2023-07-02T12:45:06;15.35;;;10.27;;
22711;SDS011;11523;50.390;8.072;2023-07-02T12:47:32;12.68;;;9.75;;
22711;SDS011;11523;50.390;8.072;2023-07-02T12:49:58;19.95;;;12.43;;
22711;SDS011;11523;50.390;8.072;2023-07-02T12:52:24;13.68;;;11.77;;
22711;SDS011;11523;50.390;8.072;2023-07-02T12:54:50;18.38;;;12.57;;
22711;SDS011;11523;50.390;8.072;2023-07-02T12:57:16;16.98;;;11.80;;
22711;SDS011;11523;50.390;8.072;2023-07-02T12:59:43;15.40;;;12.18;;
22711;SDS011;11523;50.390;8.072;2023-07-02T13:02:09;18.48;;;12.48;;
22711;SDS011;11523;50.390;8.072;2023-07-02T13:04:35;15.88;;;12.02;;
22711;SDS011;11523;50.390;8.072;2023-07-02T13:07:01;15.50;;;12.13;;
22711;SDS011;11523;50.390;8.072;2023-07-02T13:09:27;14.20;;;12.48;;
22711;SDS011;11523;50.390;8.072;2023-07-02T13:11:53;16.75;;;11.35;;
22711;SDS011;11523;50.390;8.072;2023-07-02T13:14:19;16.70;;;12.57;;
22711;SDS011;11523;50.390;8.072;2023-07-02T13:16:45;15.30;;;10.82;;
22711;SDS011;11523;50.390;8.072;2023-07-02T13:19:12;14.93;;;12.23;;
22711;SDS011;11523;50.390;8.072;2023-07-02T13:21:38;17.15;;;11.52;;
22711;SDS011;11523;50.390;8.072;2023-07-02T13:24:04;17.42;;;12.38;;
22711;SDS011;11523;50.390;8.072;2023-07-02T13:26:30;17.23;;;13.20;;
22711;SDS011;11523;50.390;8.072;2023-07-02T13:28:56;15.52;;;12.25;;
22711;SDS011;11523;50.390;8.072;2023-07-02T13:31:22;21.42;;;12.25;;
22711;SDS011;11523;50.390;8.072;2023-07-02T13:33:48;16.08;;;11.85;;
22711;SDS011;11523;50.390;8.072;2023-07-02T13:36:15;19.38;;;13.57;;
22711;SDS011;11523;50.390;8.072;2023-07-02T13:38:41;19.38;;;13.35;;
22711;SDS011;11523;50.390;8.072;2023-07-02T13:41:07;21.30;;;13.85;;
22711;SDS011;11523;50.390;8.072;2023-07-02T13:43:33;18.20;;;13.43;;
22711;SDS011;11523;50.390;8.072;2023-07-02T13:45:59;17.38;;;13.05;;
22711;SDS011;11523;50.390;8.072;2023-07-02T13:48:25;16.40;;;12.68;;
22711;SDS011;11523;50.390;8.072;2023-07-02T13:50:51;21.05;;;13.65;;
22711;SDS011;11523;50.390;8.072;2023-07-02T13:53:17;15.98;;;12.80;;
22711;SDS011;11523;50.390;8.072;2023-07-02T13:55:43;22.02;;;13.75;;
22711;SDS011;11523;50.390;8.072;2023-07-02T13:58:09;19.25;;;14.35;;
22711;SDS011;11523;50.390;8.072;2023-07-02T14:00:35;17.98;;;13.07;;
22711;SDS011;11523;50.390;8.072;2023-07-02T14:03:01;20.42;;;14.07;;
22711;SDS011;11523;50.390;8.072;2023-07-02T14:05:26;18.77;;;14.25;;
22711;SDS011;11523;50.390;8.072;2023-07-02T14:07:52;20.02;;;14.73;;
22711;SDS011;11523;50.390;8.072;2023-07-02T14:10:19;19.80;;;13.93;;
22711;SDS011;11523;50.390;8.072;2023-07-02T14:12:45;19.25;;;14.20;;
22711;SDS011;11523;50.390;8.072;2023-07-02T14:15:11;15.50;;;12.85;;
22711;SDS011;11523;50.390;8.072;2023-07-02T14:17:37;15.88;;;11.57;;
22711;SDS011;11523;50.390;8.072;2023-07-02T14:20:03;19.05;;;13.25;;
22711;SDS011;11523;50.390;8.072;2023-07-02T14:22:30;17.63;;;13.43;;
22711;SDS011;11523;50.390;8.072;2023-07-02T14:24:56;18.67;;;14.20;;
22711;SDS011;11523;50.390;8.072;2023-07-02T14:27:22;18.13;;;13.43;;
22711;SDS011;11523;50.390;8.072;2023-07-02T14:29:48;19.70;;;13.57;;
22711;SDS011;11523;50.390;8.072;2023-07-02T14:32:14;18.85;;;13.38;;
22711;SDS011;11523;50.390;8.072;2023-07-02T14:34:41;18.92;;;14.25;;
22711;SDS011;11523;50.390;8.072;2023-07-02T14:37:07;20.52;;;12.77;;
22711;SDS011;11523;50.390;8.072;2023-07-02T14:39:33;21.67;;;14.45;;
22711;SDS011;11523;50.390;8.072;2023-07-02T14:41:59;19.08;;;14.38;;
22711;SDS011;11523;50.390;8.072;2023-07-02T14:44:25;17.77;;;13.50;;
22711;SDS011;11523;50.390;8.072;2023-07-02T14:46:51;17.45;;;12.85;;
22711;SDS011;11523;50.390;8.072;2023-07-02T14:49:17;17.83;;;14.55;;
22711;SDS011;11523;50.390;8.072;2023-07-02T14:51:43;18.13;;;13.32;;
22711;SDS011;11523;50.390;8.072;2023-07-02T14:54:09;18.55;;;12.90;;
22711;SDS011;11523;50.390;8.072;2023-07-02T14:56:35;18.23;;;13.48;;
22711;SDS011;11523;50.390;8.072;2023-07-02T14:59:02;18.95;;;13.43;;
22711;SDS011;11523;50.390;8.072;2023-07-02T15:01:28;21.15;;;14.07;;
22711;SDS011;11523;50.390;8.072;2023-07-02T15:03:54;17.90;;;12.75;;
22711;SDS011;11523;50.390;8.072;2023-07-02T15:06:20;18.70;;;12.98;;
22711;SDS011;11523;50.390;8.072;2023-07-02T15:08:46;19.10;;;14.55;;
22711;SDS011;11523;50.390;8.072;2023-07-02T15:11:13;24.63;;;14.43;;
22711;SDS011;11523;50.390;8.072;2023-07-02T15:13:39;19.40;;;13.85;;
22711;SDS011;11523;50.390;8.072;2023-07-02T15:16:06;16.60;;;13.05;;
22711;SDS011;11523;50.390;8.072;2023-07-02T15:18:32;17.80;;;13.45;;
22711;SDS011;11523;50.390;8.072;2023-07-02T15:20:57;19.05;;;14.63;;
22711;SDS011;11523;50.390;8.072;2023-07-02T15:23:24;15.68;;;13.63;;
22711;SDS011;11523;50.390;8.072;2023-07-02T15:25:54;21.25;;;14.10;;
22711;SDS011;11523;50.390;8.072;2023-07-02T15:28:21;18.02;;;14.05;;
22711;SDS011;11523;50.390;8.072;2023-07-02T15:30:51;19.40;;;13.60;;
22711;SDS011;11523;50.390;8.072;2023-07-02T15:33:17;16.13;;;12.93;;
22711;SDS011;11523;50.390;8.072;2023-07-02T15:35:42;16.85;;;12.55;;
22711;SDS011;11523;50.390;8.072;2023-07-02T15:38:08;18.80;;;13.23;;
22711;SDS011;11523;50.390;8.072;2023-07-02T15:40:34;18.65;;;12.20;;
22711;SDS011;11523;50.390;8.072;2023-07-02T15:43:07;17.92;;;12.23;;
22711;SDS011;11523;50.390;8.072;2023-07-02T15:45:33;17.98;;;13.18;;
22711;SDS011;11523;50.390;8.072;2023-07-02T15:48:05;19.88;;;13.73;;
22711;SDS011;11523;50.390;8.072;2023-07-02T15:50:31;19.30;;;12.68;;
22711;SDS011;11523;50.390;8.072;2023-07-02T15:52:57;17.85;;;12.25;;
22711;SDS011;11523;50.390;8.072;2023-07-02T15:55:23;20.17;;;12.75;;
22711;SDS011;11523;50.390;8.072;2023-07-02T15:57:49;21.08;;;13.50;;
22711;SDS011;11523;50.390;8.072;2023-07-02T16:00:15;17.50;;;12.98;;
22711;SDS011;11523;50.390;8.072;2023-07-02T16:02:42;16.20;;;12.32;;
22711;SDS011;11523;50.390;8.072;2023-07-02T16:05:08;18.17;;;13.40;;
22711;SDS011;11523;50.390;8.072;2023-07-02T16:07:34;18.17;;;12.68;;
22711;SDS011;11523;50.390;8.072;2023-07-02T16:10:01;20.92;;;13.98;;
22711;SDS011;11523;50.390;8.072;2023-07-02T16:12:27;21.45;;;13.98;;
22711;SDS011;11523;50.390;8.072;2023-07-02T16:14:53;19.52;;;13.27;;
22711;SDS011;11523;50.390;8.072;2023-07-02T16:17:20;18.02;;;13.70;;
22711;SDS011;11523;50.390;8.072;2023-07-02T16:19:46;19.05;;;13.68;;
22711;SDS011;11523;50.390;8.072;2023-07-02T16:22:12;19.15;;;13.88;;
22711;SDS011;11523;50.390;8.072;2023-07-02T16:24:38;15.73;;;11.05;;
22711;SDS011;11523;50.390;8.072;2023-07-02T16:27:06;19.50;;;13.48;;
22711;SDS011;11523;50.390;8.072;2023-07-02T16:29:34;17.77;;;12.50;;
22711;SDS011;11523;50.390;8.072;2023-07-02T16:32:00;19.90;;;13.55;;
22711;SDS011;11523;50.390;8.072;2023-07-02T16:34:27;22.98;;;13.82;;
22711;SDS011;11523;50.390;8.072;2023-07-02T16:36:56;18.17;;;13.40;;
22711;SDS011;11523;50.390;8.072;2023-07-02T16:39:23;16.80;;;13.00;;
22711;SDS011;11523;50.390;8.072;2023-07-02T16:41:49;19.52;;;13.82;;
22711;SDS011;11523;50.390;8.072;2023-07-02T16:44:21;18.75;;;12.95;;
22711;SDS011;11523;50.390;8.072;2023-07-02T16:46:48;20.30;;;13.57;;
22711;SDS011;11523;50.390;8.072;2023-07-02T16:49:15;18.25;;;13.00;;
22711;SDS011;11523;50.390;8.072;2023-07-02T16:51:42;20.42;;;13.20;;
22711;SDS011;11523;50.390;8.072;2023-07-02T16:54:10;17.50;;;12.27;;
22711;SDS011;11523;50.390;8.072;2023-07-02T16:56:40;21.48;;;13.85;;
22711;SDS011;11523;50.390;8.072;2023-07-02T16:59:07;17.20;;;12.90;;
22711;SDS011;11523;50.390;8.072;2023-07-02T17:01:33;16.88;;;13.35;;
22711;SDS011;11523;50.390;8.072;2023-07-02T17:03:59;18.17;;;13.32;;
22711;SDS011;11523;50.390;8.072;2023-07-02T17:06:25;17.58;;;13.10;;
22711;SDS011;11523;50.390;8.072;2023-07-02T17:09:15;19.23;;;13.38;;
22711;SDS011;11523;50.390;8.072;2023-07-02T17:11:37;19.73;;;13.70;;
22711;SDS011;11523;50.390;8.072;2023-07-02T17:14:03;16.70;;;13.15;;
22711;SDS011;11523;50.390;8.072;2023-07-02T17:16:29;21.88;;;13.35;;
22711;SDS011;11523;50.390;8.072;2023-07-02T17:18:55;18.85;;;12.55;;
22711;SDS011;11523;50.390;8.072;2023-07-02T17:21:21;19.08;;;12.05;;
22711;SDS011;11523;50.390;8.072;2023-07-02T17:23:47;17.15;;;12.85;;
22711;SDS011;11523;50.390;8.072;2023-07-02T17:26:13;19.20;;;12.75;;
22711;SDS011;11523;50.390;8.072;2023-07-02T17:28:39;14.73;;;12.48;;
22711;SDS011;11523;50.390;8.072;2023-07-02T17:31:05;18.45;;;12.93;;
22711;SDS011;11523;50.390;8.072;2023-07-02T17:33:30;18.23;;;12.88;;
22711;SDS011;11523;50.390;8.072;2023-07-02T17:35:56;17.48;;;12.52;;
22711;SDS011;11523;50.390;8.072;2023-07-02T17:38:22;17.80;;;12.50;;
22711;SDS011;11523;50.390;8.072;2023-07-02T17:40:48;16.35;;;12.43;;
22711;SDS011;11523;50.390;8.072;2023-07-02T17:43:14;16.65;;;12.38;;
22711;SDS011;11523;50.390;8.072;2023-07-02T17:45:40;16.77;;;12.23;;
22711;SDS011;11523;50.390;8.072;2023-07-02T17:48:06;18.67;;;12.02;;
22711;SDS011;11523;50.390;8.072;2023-07-02T17:50:32;19.65;;;13.05;;
22711;SDS011;11523;50.390;8.072;2023-07-02T17:52:58;18.77;;;13.07;;
22711;SDS011;11523;50.390;8.072;2023-07-02T17:55:24;18.33;;;13.13;;
22711;SDS011;11523;50.390;8.072;2023-07-02T17:57:50;18.10;;;12.88;;
22711;SDS011;11523;50.390;8.072;2023-07-02T18:00:16;17.90;;;12.63;;
22711;SDS011;11523;50.390;8.072;2023-07-02T18:02:42;18.23;;;12.32;;
22711;SDS011;11523;50.390;8.072;2023-07-02T18:05:08;18.05;;;12.50;;
22711;SDS011;11523;50.390;8.072;2023-07-02T18:07:34;18.98;;;12.45;;
22711;SDS011;11523;50.390;8.072;2023-07-02T18:09:59;18.33;;;13.05;;
22711;SDS011;11523;50.390;8.072;2023-07-02T18:12:25;17.30;;;12.68;;
22711;SDS011;11523;50.390;8.072;2023-07-02T18:14:53;20.58;;;12.70;;
22711;SDS011;11523;50.390;8.072;2023-07-02T18:17:20;19.48;;;12.40;;